sensor_id;sensor_type;location;lat;lon;timestamp;P1;durP1;ratioP1;P2;durP2;ratioP2
31686;SDS011;18285;51.330;4.946;2023-04-24T00:13:58;3.42;;;1.60;;
31686;SDS011;18285;51.330;4.946;2023-04-24T00:38:08;3.42;;;2.40;;
31686;SDS011;18285;51.330;4.946;2023-04-24T01:02:19;3.28;;;2.30;;
31686;SDS011;18285;51.330;4.946;2023-04-24T01:26:32;4.35;;;2.60;;
31686;SDS011;18285;51.330;4.946;2023-04-24T01:50:43;3.63;;;2.67;;
31686;SDS011;18285;51.330;4.946;2023-04-24T02:14:54;3.40;;;2.10;;
31686;SDS011;18285;51.330;4.946;2023-04-24T02:39:04;2.92;;;1.85;;
31686;SDS011;18285;51.330;4.946;2023-04-24T03:03:15;2.88;;;2.25;;
31686;SDS011;18285;51.330;4.946;2023-04-24T03:27:26;2.90;;;2.13;;
31686;SDS011;18285;51.330;4.946;2023-04-24T03:51:36;2.00;;;1.60;;
31686;SDS011;18285;51.330;4.946;2023-04-24T04:15:47;1.40;;;1.30;;
31686;SDS011;18285;51.330;4.946;2023-04-24T04:39:58;4.50;;;2.00;;
31686;SDS011;18285;51.330;4.946;2023-04-24T05:04:09;5.43;;;2.53;;
31686;SDS011;18285;51.330;4.946;2023-04-24T05:28:20;2.65;;;1.50;;
31686;SDS011;18285;51.330;4.946;2023-04-24T05:52:31;2.42;;;1.60;;
31686;SDS011;18285;51.330;4.946;2023-04-24T06:16:42;6.68;;;2.08;;
31686;SDS011;18285;51.330;4.946;2023-04-24T06:40:53;3.40;;;1.95;;
31686;SDS011;18285;51.330;4.946;2023-04-24T07:05:04;2.53;;;1.77;;
31686;SDS011;18285;51.330;4.946;2023-04-24T07:29:15;5.55;;;2.17;;
31686;SDS011;18285;51.330;4.946;2023-04-24T07:53:26;7.38;;;2.30;;
31686;SDS011;18285;51.330;4.946;2023-04-24T08:17:36;4.85;;;1.83;;
31686;SDS011;18285;51.330;4.946;2023-04-24T08:41:47;6.43;;;2.15;;
31686;SDS011;18285;51.330;4.946;2023-04-24T09:06:00;5.05;;;1.73;;
31686;SDS011;18285;51.330;4.946;2023-04-24T09:30:12;5.75;;;1.83;;
31686;SDS011;18285;51.330;4.946;2023-04-24T09:54:24;3.80;;;1.33;;
31686;SDS011;18285;51.330;4.946;2023-04-24T10:18:35;2.17;;;0.90;;
31686;SDS011;18285;51.330;4.946;2023-04-24T10:42:47;2.30;;;0.80;;
31686;SDS011;18285;51.330;4.946;2023-04-24T11:06:59;2.72;;;0.98;;
31686;SDS011;18285;51.330;4.946;2023-04-24T11:55:49;2.83;;;0.90;;
31686;SDS011;18285;51.330;4.946;2023-04-24T12:20:01;1.60;;;0.60;;
31686;SDS011;18285;51.330;4.946;2023-04-24T12:44:14;2.17;;;0.93;;
31686;SDS011;18285;51.330;4.946;2023-04-24T13:08:25;1.70;;;0.60;;
31686;SDS011;18285;51.330;4.946;2023-04-24T13:32:36;1.60;;;0.50;;
31686;SDS011;18285;51.330;4.946;2023-04-24T13:56:50;3.10;;;0.80;;
31686;SDS011;18285;51.330;4.946;2023-04-24T14:21:02;2.75;;;0.65;;
31686;SDS011;18285;51.330;4.946;2023-04-24T14:45:13;3.33;;;1.27;;
31686;SDS011;18285;51.330;4.946;2023-04-24T15:09:24;8.13;;;3.97;;
31686;SDS011;18285;51.330;4.946;2023-04-24T15:33:36;2.20;;;1.40;;
31686;SDS011;18285;51.330;4.946;2023-04-24T15:57:47;1.85;;;1.20;;
31686;SDS011;18285;51.330;4.946;2023-04-24T16:21:57;2.67;;;1.10;;
31686;SDS011;18285;51.330;4.946;2023-04-24T16:46:08;3.22;;;1.38;;
31686;SDS011;18285;51.330;4.946;2023-04-24T17:10:19;8.27;;;1.80;;
31686;SDS011;18285;51.330;4.946;2023-04-24T17:34:30;6.07;;;2.22;;
31686;SDS011;18285;51.330;4.946;2023-04-24T17:58:40;8.18;;;2.90;;
31686;SDS011;18285;51.330;4.946;2023-04-24T18:22:51;7.00;;;3.25;;
31686;SDS011;18285;51.330;4.946;2023-04-24T18:47:02;9.70;;;5.00;;
31686;SDS011;18285;51.330;4.946;2023-04-24T19:11:13;9.40;;;3.78;;
31686;SDS011;18285;51.330;4.946;2023-04-24T19:35:24;14.55;;;6.70;;
31686;SDS011;18285;51.330;4.946;2023-04-24T19:59:35;11.48;;;4.53;;
31686;SDS011;18285;51.330;4.946;2023-04-24T20:23:45;9.50;;;4.03;;
31686;SDS011;18285;51.330;4.946;2023-04-24T20:47:56;7.95;;;4.28;;
31686;SDS011;18285;51.330;4.946;2023-04-24T21:12:07;7.28;;;4.45;;
31686;SDS011;18285;51.330;4.946;2023-04-24T21:36:17;5.93;;;3.75;;
31686;SDS011;18285;51.330;4.946;2023-04-24T22:00:28;6.10;;;3.60;;
31686;SDS011;18285;51.330;4.946;2023-04-24T22:24:39;6.28;;;3.78;;
31686;SDS011;18285;51.330;4.946;2023-04-24T22:48:50;4.43;;;3.20;;
31686;SDS011;18285;51.330;4.946;2023-04-24T23:13:00;4.13;;;2.72;;
31686;SDS011;18285;51.330;4.946;2023-04-24T23:37:11;5.55;;;2.63;;
